Terminal Aerodrome Forecast
Issued by NWS Tuscon, AZ

Home | Current Version | Previous Version | Text Only | Print | Product List | Glossary On
Versions: 1 2 3 4 5 6 7 8 9 10 11 12
000
FTUS45 KTWC 261121
TAFTUS
TAF
KTUS 261121Z 2612/2712 15007KT P6SM SCT250
     FM261800 20005KT P6SM SCT250
     FM262200 26008KT P6SM SCT250
     FM270300 27005KT P6SM FEW250
     FM270700 15006KT P6SM FEW250=

USA.gov is the U.S. government's official web portal to all federal, state and local government web resources and services.